Time;durP1;ratioP1;P1;durP2;ratioP2;P2;SDS_P1;SDS_P2;PMS_P1;PMS_P2;Temp;Humidity;BMP_temperature;BMP_pressure;BME280_temperature;BME280_humidity;BME280_pressure;Samples;Min_cycle;Max_cycle;Signal;HPM_P1;HPM_P2
2023/10/01 00:01:17;;;;;;;;;;;;;;;12.31;96.88;102365.41;4922993;29;19915;-96
2023/10/01 00:03:53;;;;;;;;;;;;;;;12.28;96.84;102366.19;4921567;29;19931;-96
2023/10/01 00:06:24;;;;;;;;;;;;;;;12.28;96.84;102370.50;4921801;29;19915;-96
2023/10/01 00:08:53;;;;;;;;;;;;;;;12.26;97.06;102370.44;4922724;29;19915;-96
2023/10/01 00:11:19;;;;;;;;;;;;;;;12.24;96.93;102374.72;4921877;29;19915;-96
2023/10/01 00:13:44;;;;;;;;;;;;;;;12.24;96.88;102365.97;4921274;29;19926;-96
2023/10/01 00:16:13;;;;;;;;;;;;;;;12.22;96.88;102375.50;4921863;29;20365;-96
2023/10/01 00:18:41;;;;;;;;;;;;;;;12.19;97.16;102373.63;4921690;29;20302;-96
2023/10/01 00:21:07;;;;;;;;;;;;;;;12.16;97.08;102370.91;4921199;29;19915;-96
2023/10/01 00:23:33;;;;;;;;;;;;;;;12.14;97.40;102368.22;4920802;29;19983;-96
2023/10/01 00:26:01;;;;;;;;;;;;;;;12.11;98.95;102368.09;4921854;29;19915;-96
2023/10/01 00:28:32;;;;;;;;;;;;;;;12.09;99.31;102379.31;4922042;29;19921;-96
2023/10/01 00:30:57;;;;;;;;;;;;;;;12.08;98.55;102381.03;4921851;29;19915;-96
2023/10/01 00:33:22;;;;;;;;;;;;;;;12.05;99.14;102372.16;4919231;29;19942;-96
2023/10/01 00:35:48;;;;;;;;;;;;;;;12.03;99.74;102368.63;4902828;29;19915;-96
2023/10/01 00:38:16;;;;;;;;;;;;;;;12.00;100.00;102365.03;4903269;29;20286;-96
2023/10/01 00:40:45;;;;;;;;;;;;;;;11.99;100.00;102365.88;4902782;29;19951;-96
2023/10/01 00:43:12;;;;;;;;;;;;;;;11.99;100.00;102365.88;4903599;29;19915;-96
2023/10/01 00:45:44;;;;;;;;;;;;;;;11.98;99.61;102366.69;4922669;29;19962;-96
2023/10/01 00:48:28;;;;;;;;;;;;;;;11.98;100.00;102355.38;4922732;29;20392;-96
2023/10/01 00:51:00;;;;;;;;;;;;;;;11.97;100.00;102349.22;4921228;29;19919;-96
2023/10/01 00:53:26;;;;;;;;;;;;;;;11.98;100.00;102350.13;4920739;29;19922;-96
2023/10/01 00:55:51;;;;;;;;;;;;;;;11.95;100.00;102337.84;4921052;29;19915;-96
2023/10/01 00:58:22;;;;;;;;;;;;;;;11.96;100.00;102342.25;4921667;29;19915;-96
2023/10/01 01:00:49;;;;;;;;;;;;;;;11.95;100.00;102343.06;4922356;29;20308;-96
2023/10/01 01:03:23;;;;;;;;;;;;;;;11.96;100.00;102333.50;4920391;29;19934;-96
2023/10/01 01:06:12;;;;;;;;;;;;;;;11.94;100.00;102329.94;4921930;29;20269;-96
2023/10/01 01:09:00;;;;;;;;;;;;;;;11.92;100.00;102324.63;4923487;29;19918;-96
2023/10/01 01:11:31;;;;;;;;;;;;;;;11.92;100.00;102327.22;4940128;29;19950;-96
2023/10/01 01:14:01;;;;;;;;;;;;;;;11.91;100.00;102327.16;4922373;29;19953;-96
2023/10/01 01:16:38;;;;;;;;;;;;;;;11.91;100.00;102317.59;4921241;29;19959;-96
2023/10/01 01:19:04;;;;;;;;;;;;;;;11.92;99.97;102324.63;4922161;29;19922;-96
2023/10/01 01:21:31;;;;;;;;;;;;;;;11.91;100.00;102316.72;4923020;29;19915;-96
2023/10/01 01:23:59;;;;;;;;;;;;;;;11.89;100.00;102307.91;4922021;29;19921;-96
2023/10/01 01:26:28;;;;;;;;;;;;;;;11.88;100.00;102314.84;4921642;29;20428;-96
2023/10/01 01:28:53;;;;;;;;;;;;;;;11.89;100.00;102318.34;4903371;29;19919;-96
2023/10/01 01:31:28;;;;;;;;;;;;;;;11.92;100.00;102323.69;4909400;29;19921;-96
2023/10/01 01:33:57;;;;;;;;;;;;;;;11.91;100.00;102320.22;4922834;29;20403;-96
2023/10/01 01:36:30;;;;;;;;;;;;;;;11.91;100.00;102312.38;4922246;29;19919;-96
2023/10/01 01:39:09;;;;;;;;;;;;;;;11.92;100.00;102303.72;4922753;29;19915;-96
2023/10/01 01:41:39;;;;;;;;;;;;;;;11.94;100.00;102312.53;4921897;29;19965;-96
2023/10/01 01:44:07;;;;;;;;;;;;;;;11.95;99.91;102309.09;4922598;29;19919;-96
2023/10/01 01:46:47;;;;;;;;;;;;;;;11.95;99.76;102306.50;4922644;29;19915;-96
2023/10/01 01:49:20;;;;;;;;;;;;;;;11.94;100.00;102299.47;4922052;29;19923;-96
2023/10/01 01:52:03;;;;;;;;;;;;;;;11.96;99.46;102305.66;4922088;29;19918;-96
2023/10/01 01:54:51;;;;;;;;;;;;;;;11.96;99.81;102305.66;4920096;29;19935;-96
2023/10/01 01:57:20;;;;;;;;;;;;;;;11.99;99.88;102308.41;4922998;29;19919;-96
2023/10/01 01:59:48;;;;;;;;;;;;;;;11.99;99.59;102300.56;4921685;29;19914;-96
2023/10/01 02:02:22;;;;;;;;;;;;;;;11.99;99.61;102302.25;4922698;29;19998;-96
2023/10/01 02:04:59;;;;;;;;;;;;;;;11.99;99.75;102311.00;4922296;29;19923;-96
2023/10/01 02:07:33;;;;;;;;;;;;;;;11.99;99.27;102302.25;4926490;29;19915;-96
2023/10/01 02:09:58;;;;;;;;;;;;;;;11.97;99.74;102301.31;4927651;29;19914;-96
2023/10/01 02:12:30;;;;;;;;;;;;;;;11.94;100.00;102303.81;4926138;29;19969;-96
2023/10/01 02:14:56;;;;;;;;;;;;;;;11.92;100.00;102293.25;4927237;29;20442;-96
2023/10/01 02:17:29;;;;;;;;;;;;;;;11.91;100.00;102290.59;4925374;29;19922;-96
2023/10/01 02:19:55;;;;;;;;;;;;;;;11.90;100.00;102284.47;4924654;29;19954;-96
2023/10/01 02:22:40;;;;;;;;;;;;;;;11.88;99.84;102286.13;4924667;29;20743;-96
2023/10/01 02:25:10;;;;;;;;;;;;;;;11.86;100.00;102277.34;4925207;29;19915;-96
2023/10/01 02:27:45;;;;;;;;;;;;;;;11.83;100.00;102282.41;4924814;29;20436;-96
2023/10/01 02:30:23;;;;;;;;;;;;;;;11.83;100.00;102279.81;4925678;29;19915;-96
2023/10/01 02:33:16;;;;;;;;;;;;;;;11.82;100.00;102278.94;4925515;29;20300;-96
2023/10/01 02:35:41;;;;;;;;;;;;;;;11.82;100.00;102278.94;4942659;29;19921;-96
2023/10/01 02:41:08;;;;;;;;;;;;;;;11.81;100.00;102279.75;4941563;29;19922;-96
2023/10/01 02:43:41;;;;;;;;;;;;;;;11.82;100.00;102275.44;4923208;29;19961;-96
2023/10/01 02:46:12;;;;;;;;;;;;;;;11.79;100.00;102281.41;4923735;29;20001;-96
2023/10/01 02:48:47;;;;;;;;;;;;;;;11.80;100.00;102292.75;4922949;29;19915;-96
2023/10/01 02:51:32;;;;;;;;;;;;;;;11.80;100.00;102293.66;4924959;29;19918;-96
2023/10/01 02:54:08;;;;;;;;;;;;;;;11.79;100.00;102284.03;4924041;29;19975;-96
2023/10/01 02:56:37;;;;;;;;;;;;;;;11.79;100.00;102291.88;4924267;29;19926;-96
2023/10/01 02:59:09;;;;;;;;;;;;;;;11.80;100.00;102296.25;4924113;29;19915;-96
2023/10/01 03:01:39;;;;;;;;;;;;;;;11.79;100.00;102293.59;4924578;29;20500;-96
2023/10/01 03:04:15;;;;;;;;;;;;;;;11.78;100.00;102284.84;4924150;29;19994;-96
2023/10/01 03:07:09;;;;;;;;;;;;;;;11.78;100.00;102284.84;4924497;29;19919;-96
2023/10/01 03:09:39;;;;;;;;;;;;;;;11.79;100.00;102289.25;4924897;29;19919;-96
2023/10/01 03:15:16;;;;;;;;;;;;;;;11.76;100.00;102280.38;4941380;29;19922;-96
2023/10/01 03:17:56;;;;;;;;;;;;;;;11.75;100.00;102276.88;4922333;29;19919;-96
2023/10/01 03:23:33;;;;;;;;;;;;;;;11.72;100.00;102284.59;4941834;29;19922;-96
2023/10/01 03:26:08;;;;;;;;;;;;;;;11.72;100.00;102279.38;4925956;29;19966;-96
2023/10/01 03:29:13;;;;;;;;;;;;;;;11.72;100.00;102288.94;4924411;29;19923;-96
2023/10/01 03:31:20;;;;;;;;;;;;;;;11.69;100.00;102283.56;4943002;29;19919;-96
2023/10/01 03:33:53;;;;;;;;;;;;;;;11.67;100.00;102286.09;4926238;29;20293;-96
2023/10/01 03:39:27;;;;;;;;;;;;;;;11.64;100.00;102280.75;4943637;29;19923;-96
2023/10/01 03:42:13;;;;;;;;;;;;;;;11.61;100.00;102276.28;4926311;29;19921;-96
2023/10/01 03:45:39;;;;;;;;;;;;;;;11.58;100.00;102270.06;4925764;29;19915;-96
2023/10/01 03:47:57;;;;;;;;;;;;;;;11.58;100.00;102276.16;4934546;29;19919;-95
2023/10/01 03:50:24;;;;;;;;;;;;;;;11.59;100.00;102279.69;4926914;29;19915;-96
2023/10/01 03:52:53;;;;;;;;;;;;;;;11.59;100.00;102277.97;4924964;29;20356;-96
2023/10/01 03:55:32;;;;;;;;;;;;;;;11.59;100.00;102277.97;4925803;29;20001;-96
2023/10/01 04:00:32;;;;;;;;;;;;;;;11.60;100.00;102273.63;4943041;29;19915;-96
2023/10/01 04:03:00;;;;;;;;;;;;;;;11.59;100.00;102277.97;4925769;29;19937;-96
2023/10/01 04:05:34;;;;;;;;;;;;;;;11.60;100.00;102274.53;4926351;29;19923;-96
2023/10/01 04:08:10;;;;;;;;;;;;;;;11.60;100.00;102276.22;4927049;29;19914;-96
2023/10/01 04:10:38;;;;;;;;;;;;;;;11.60;100.00;102274.53;4927550;29;19921;-96
2023/10/01 04:13:12;;;;;;;;;;;;;;;11.59;100.00;102264.91;4925969;29;20001;-96
2023/10/01 04:15:41;;;;;;;;;;;;;;;11.60;100.00;102279.75;4925357;29;19926;-96
2023/10/01 04:20:48;;;;;;;;;;;;;;;11.60;100.00;102271.94;4941505;29;19915;-96
2023/10/01 04:26:08;;;;;;;;;;;;;;;11.60;100.00;102277.16;4927289;29;20391;-96
2023/10/01 04:28:36;;;;;;;;;;;;;;;11.59;100.00;102283.19;4923872;29;19978;-96
2023/10/01 04:31:09;;;;;;;;;;;;;;;11.59;100.00;102274.47;4925607;29;19914;-96
2023/10/01 04:33:34;;;;;;;;;;;;;;;11.57;100.00;102269.19;4926828;29;19919;-96
2023/10/01 04:36:02;;;;;;;;;;;;;;;11.56;100.00;102267.41;4925897;29;19974;-96
2023/10/01 04:38:35;;;;;;;;;;;;;;;11.55;100.00;102264.72;4925888;29;19975;-96
2023/10/01 04:41:06;;;;;;;;;;;;;;;11.55;100.00;102265.59;4926412;29;19915;-96
2023/10/01 04:43:51;;;;;;;;;;;;;;;11.57;100.00;102265.66;4925677;29;19915;-96
2023/10/01 04:46:20;;;;;;;;;;;;;;;11.57;100.00;102273.50;4925572;29;19954;-96
2023/10/01 04:49:08;;;;;;;;;;;;;;;11.54;100.00;102261.19;4925768;29;19914;-96
2023/10/01 04:51:52;;;;;;;;;;;;;;;11.55;100.00;102269.94;4926781;29;20360;-96
2023/10/01 04:54:21;;;;;;;;;;;;;;;11.53;100.00;102267.28;4924882;29;19968;-96
2023/10/01 04:56:50;;;;;;;;;;;;;;;11.54;100.00;102275.97;4925683;29;19949;-96
2023/10/01 04:59:18;;;;;;;;;;;;;;;11.54;100.00;102278.59;4925702;29;20321;-96
2023/10/01 05:01:56;;;;;;;;;;;;;;;11.54;100.00;102278.59;4925495;29;19915;-96
2023/10/01 05:04:23;;;;;;;;;;;;;;;11.53;100.00;102272.50;4925992;29;19923;-96
2023/10/01 05:06:59;;;;;;;;;;;;;;;11.54;100.00;102271.63;4926480;29;19941;-96
2023/10/01 05:09:28;;;;;;;;;;;;;;;11.53;100.00;102275.09;4926954;29;19919;-96
2023/10/01 05:12:01;;;;;;;;;;;;;;;11.54;100.00;102278.59;4925845;29;19915;-96
2023/10/01 05:14:27;;;;;;;;;;;;;;;11.52;100.00;102265.47;4926920;29;19965;-96
2023/10/01 05:16:54;;;;;;;;;;;;;;;11.53;100.00;102272.50;4925899;29;19926;-96
2023/10/01 05:19:23;;;;;;;;;;;;;;;11.54;100.00;102265.53;4926462;29;19915;-96
2023/10/01 05:21:50;;;;;;;;;;;;;;;11.54;100.00;102269.03;4925979;29;19922;-96
2023/10/01 05:27:18;;;;;;;;;;;;;;;11.56;100.00;102280.44;4921408;29;20005;-96
2023/10/01 05:29:48;;;;;;;;;;;;;;;11.58;100.00;102280.50;4928130;29;19915;-96
2023/10/01 05:32:18;;;;;;;;;;;;;;;11.55;100.00;102285.59;4926449;29;19915;-96
2023/10/01 05:34:46;;;;;;;;;;;;;;;11.55;100.00;102280.38;4926305;29;19963;-96
2023/10/01 05:37:24;;;;;;;;;;;;;;;11.56;100.00;102285.66;4927308;29;19958;-96
2023/10/01 05:40:12;;;;;;;;;;;;;;;11.57;100.00;102299.59;4926375;29;19918;-96
2023/10/01 05:42:40;;;;;;;;;;;;;;;11.57;100.00;102294.38;4928281;29;20101;-96
2023/10/01 05:45:18;;;;;;;;;;;;;;;11.57;100.00;102304.81;4929937;29;19954;-96
2023/10/01 05:47:54;;;;;;;;;;;;;;;11.57;100.00;102303.13;4928596;29;19933;-95
2023/10/01 05:50:28;;;;;;;;;;;;;;;11.57;100.00;102303.13;4928630;29;19915;-96
2023/10/01 05:52:57;;;;;;;;;;;;;;;11.56;100.00;102298.72;4928545;29;19919;-96
2023/10/01 05:55:24;;;;;;;;;;;;;;;11.57;100.00;102292.69;4929706;29;19950;-96
2023/10/01 05:57:52;;;;;;;;;;;;;;;11.57;100.00;102284.84;4929768;29;19923;-96
2023/10/01 06:00:27;;;;;;;;;;;;;;;11.58;100.00;102288.34;4928178;29;19958;-96
2023/10/01 06:03:02;;;;;;;;;;;;;;;11.56;100.00;102284.78;4929161;29;19942;-96
2023/10/01 06:05:42;;;;;;;;;;;;;;;11.56;100.00;102288.28;4930148;29;20377;-96
2023/10/01 06:08:17;;;;;;;;;;;;;;;11.56;100.00;102293.50;4929677;29;19925;-96
2023/10/01 06:11:04;;;;;;;;;;;;;;;11.56;100.00;102283.06;4929734;29;19916;-96
2023/10/01 06:13:31;;;;;;;;;;;;;;;11.59;100.00;102288.41;4928969;29;20357;-96
2023/10/01 06:16:11;;;;;;;;;;;;;;;11.59;100.00;102297.97;4928295;29;19907;-96
2023/10/01 06:18:41;;;;;;;;;;;;;;;11.60;100.00;102297.13;4911172;29;19915;-96
2023/10/01 06:21:12;;;;;;;;;;;;;;;11.61;100.00;102291.97;4912737;29;19950;-96
2023/10/01 06:23:49;;;;;;;;;;;;;;;11.62;100.00;102288.53;4910738;29;19922;-96
2023/10/01 06:26:37;;;;;;;;;;;;;;;11.65;100.00;102306.06;4925238;29;19919;-96
2023/10/01 06:29:03;;;;;;;;;;;;;;;11.67;100.00;102301.78;4928925;29;19985;-96
2023/10/01 06:34:16;;;;;;;;;;;;;;;11.71;100.00;102290.63;4949328;29;19965;-96
2023/10/01 06:36:42;;;;;;;;;;;;;;;11.76;100.00;102294.34;4930528;29;19919;-96
2023/10/01 06:39:19;;;;;;;;;;;;;;;11.83;100.00;102292.88;4931354;29;20462;-96
2023/10/01 06:41:44;;;;;;;;;;;;;;;11.86;100.00;102300.84;4931077;29;19919;-96
2023/10/01 06:44:14;;;;;;;;;;;;;;;11.92;100.00;102288.03;4930112;29;20058;-96
2023/10/01 06:46:48;;;;;;;;;;;;;;;11.98;100.00;102292.66;4912490;29;20681;-96
2023/10/01 06:49:18;;;;;;;;;;;;;;;12.05;100.00;102285.94;4912196;29;19916;-96
2023/10/01 06:51:44;;;;;;;;;;;;;;;12.11;100.00;102286.22;4910036;29;19919;-96
2023/10/01 06:54:22;;;;;;;;;;;;;;;12.15;100.00;102281.19;4912414;29;19919;-96
2023/10/01 06:56:50;;;;;;;;;;;;;;;12.20;100.00;102286.59;4913178;29;19939;-96
2023/10/01 06:59:17;;;;;;;;;;;;;;;12.24;100.00;102284.97;4912180;29;19915;-96
2023/10/01 07:01:50;;;;;;;;;;;;;;;12.27;100.00;102286.00;4911676;29;19925;-96
2023/10/01 07:04:23;;;;;;;;;;;;;;;12.30;100.00;102280.88;4911544;29;20005;-96
2023/10/01 07:06:53;;;;;;;;;;;;;;;12.33;100.00;102273.16;4927042;29;19929;-96
2023/10/01 07:09:32;;;;;;;;;;;;;;;12.41;100.00;102273.50;4912247;29;19919;-96
2023/10/01 07:11:58;;;;;;;;;;;;;;;12.48;100.00;102290.28;4911423;29;19926;-96
2023/10/01 07:17:15;;;;;;;;;;;;;;;12.60;100.00;102280.31;4947996;29;19930;-96
2023/10/01 07:19:45;;;;;;;;;;;;;;;12.65;100.00;102278.75;4933466;29;19915;-96
2023/10/01 07:22:24;;;;;;;;;;;;;;;12.73;100.00;102286.00;4933153;29;19962;-96
2023/10/01 07:24:54;;;;;;;;;;;;;;;12.80;100.00;102283.69;4933076;29;19943;-96
2023/10/01 07:27:21;;;;;;;;;;;;;;;12.87;100.00;102280.47;4933825;29;19915;-96
2023/10/01 07:29:54;;;;;;;;;;;;;;;12.92;100.00;102288.47;4932441;29;19946;-96
2023/10/01 07:32:23;;;;;;;;;;;;;;;12.96;100.00;102289.47;4933977;29;19914;-96
2023/10/01 07:34:58;;;;;;;;;;;;;;;13.00;100.00;102301.84;4933817;29;20400;-96
2023/10/01 07:37:31;;;;;;;;;;;;;;;13.08;100.00;102291.66;4933732;29;19986;-96
2023/10/01 07:40:08;;;;;;;;;;;;;;;13.11;100.00;102295.28;4934126;29;19915;-96
2023/10/01 07:42:58;;;;;;;;;;;;;;;13.21;100.00;102293.91;4933797;29;20316;-96
2023/10/01 07:45:26;;;;;;;;;;;;;;;13.27;100.00;102293.22;4933625;29;19915;-96
2023/10/01 07:47:52;;;;;;;;;;;;;;;13.33;100.00;102296.94;4931805;29;19942;-96
2023/10/01 07:50:27;;;;;;;;;;;;;;;13.39;100.00;102302.41;4933327;29;20017;-96
2023/10/01 07:53:03;;;;;;;;;;;;;;;13.46;100.00;102310.50;4932105;29;20368;-96
2023/10/01 07:55:39;;;;;;;;;;;;;;;13.52;100.00;102308.97;4932016;29;19915;-96
2023/10/01 07:58:44;;;;;;;;;;;;;;;13.56;100.00;102312.63;4933397;29;19923;-96
2023/10/01 08:04:06;;;;;;;;;;;;;;;13.69;100.00;102304.34;4951456;29;19979;-96
2023/10/01 08:06:33;;;;;;;;;;;;;;;13.77;100.00;102304.59;4932835;29;19926;-96
2023/10/01 08:09:05;;;;;;;;;;;;;;;13.85;100.00;102303.13;4931921;29;19994;-96
2023/10/01 08:14:20;;;;;;;;;;;;;;;14.03;100.00;102299.34;4949079;29;19926;-96
2023/10/01 08:16:53;;;;;;;;;;;;;;;14.11;100.00;102304.81;4932242;29;19989;-96
2023/10/01 08:19:20;;;;;;;;;;;;;;;14.17;100.00;102305.03;4931514;29;19961;-96
2023/10/01 08:21:55;;;;;;;;;;;;;;;14.25;100.00;102314.00;4934512;29;19911;-96
2023/10/01 08:24:33;;;;;;;;;;;;;;;14.24;100.00;102315.75;4932351;29;20372;-96
2023/10/01 08:27:29;;;;;;;;;;;;;;;14.30;100.00;102312.44;4931690;29;19979;-96
2023/10/01 08:30:18;;;;;;;;;;;;;;;14.41;100.00;102320.63;4911882;29;19926;-96
2023/10/01 08:33:18;;;;;;;;;;;;;;;14.48;100.00;102322.59;4913695;29;19989;-96
2023/10/01 08:35:50;;;;;;;;;;;;;;;14.57;100.00;102327.25;4929662;29;19914;-96
2023/10/01 08:38:26;;;;;;;;;;;;;;;14.59;100.00;102326.47;4916226;29;19946;-96
2023/10/01 08:41:00;;;;;;;;;;;;;;;14.65;100.00;102327.53;4914539;29;19923;-96
2023/10/01 08:43:34;;;;;;;;;;;;;;;14.70;100.00;102324.22;4898208;29;19957;-96
2023/10/01 08:46:31;;;;;;;;;;;;;;;14.72;100.00;102324.25;4919593;29;19962;-96
2023/10/01 08:49:18;;;;;;;;;;;;;;;14.87;100.00;102326.44;4933121;29;19919;-96
2023/10/01 08:51:47;;;;;;;;;;;;;;;15.01;100.00;102321.63;4933469;29;19982;-96
2023/10/01 08:54:17;;;;;;;;;;;;;;;15.11;100.00;102315.78;4932550;29;19914;-96
2023/10/01 08:56:45;;;;;;;;;;;;;;;15.23;100.00;102315.22;4932410;29;19974;-96
2023/10/01 08:59:23;;;;;;;;;;;;;;;15.29;100.00;102321.56;4933180;29;19915;-96
2023/10/01 09:02:13;;;;;;;;;;;;;;;15.30;100.00;102310.19;4934306;29;19918;-96
2023/10/01 09:04:53;;;;;;;;;;;;;;;15.33;100.00;102316.38;4932335;29;19922;-96
2023/10/01 09:07:21;;;;;;;;;;;;;;;15.40;100.00;102313.09;4934037;29;19922;-96
2023/10/01 09:10:17;;;;;;;;;;;;;;;15.53;100.00;102317.81;4933104;29;19938;-96
2023/10/01 09:12:56;;;;;;;;;;;;;;;15.62;100.00;102320.66;4932077;29;19914;-96
2023/10/01 09:15:38;;;;;;;;;;;;;;;15.65;100.00;102315.50;4934278;29;19915;-96
2023/10/01 09:18:14;;;;;;;;;;;;;;;15.74;100.00;102309.63;4934318;29;19919;-96
2023/10/01 09:21:06;;;;;;;;;;;;;;;15.92;99.91;102303.94;4936268;29;19915;-96
2023/10/01 09:23:56;;;;;;;;;;;;;;;16.00;99.58;102301.50;4954386;29;19969;-96
2023/10/01 09:26:49;;;;;;;;;;;;;;;;;;;;;
2023/10/01 09:29:21;;;;;;;;;;;;;;;16.12;100.00;102296.56;4935369;29;19950;-96
2023/10/01 09:31:59;;;;;;;;;;;;;;;16.26;99.82;102298.63;4936991;29;19922;-96
2023/10/01 09:34:31;;;;;;;;;;;;;;;16.38;99.54;102287.50;4937972;29;19915;-96
2023/10/01 09:37:02;;;;;;;;;;;;;;;16.46;98.61;102280.66;4938196;29;19963;-96
2023/10/01 09:39:38;;;;;;;;;;;;;;;16.56;98.69;102282.66;4939694;29;19922;-96
2023/10/01 09:42:30;;;;;;;;;;;;;;;16.70;98.50;102288.22;4939042;29;19918;-96
2023/10/01 09:47:47;;;;;;;;;;;;;;;16.96;97.13;102290.53;4955062;29;19939;-96
2023/10/01 09:50:23;;;;;;;;;;;;;;;17.20;96.50;102292.75;4939767;29;19914;-96
2023/10/01 09:52:59;;;;;;;;;;;;;;;17.44;97.15;102286.16;4922936;29;19990;-96
2023/10/01 09:55:47;;;;;;;;;;;;;;;17.61;96.78;102291.75;4938718;29;19958;-96
2023/10/01 09:58:38;;;;;;;;;;;;;;;17.71;95.27;102293.69;4919519;29;19914;-96
2023/10/01 10:01:08;;;;;;;;;;;;;;;17.84;94.74;102286.88;4933121;29;19919;-96
2023/10/01 10:03:37;;;;;;;;;;;;;;;17.90;94.82;102284.38;4934080;29;19916;-96
2023/10/01 10:06:09;;;;;;;;;;;;;;;17.97;95.82;102288.00;4937706;29;19922;-96
2023/10/01 10:08:48;;;;;;;;;;;;;;;18.18;94.69;102284.81;4937454;29;19954;-97
2023/10/01 10:11:24;;;;;;;;;;;;;;;18.50;93.15;102280.00;4939592;29;19915;-96
2023/10/01 10:14:00;;;;;;;;;;;;;;;18.67;91.92;102280.25;4936909;29;19915;-96
2023/10/01 10:16:32;;;;;;;;;;;;;;;18.84;92.02;102284.84;4936488;29;19926;-96
2023/10/01 10:24:34;;;;;;;;;;;;;;;19.82;89.14;102277.09;4954057;29;19923;-96
2023/10/01 10:30:06;;;;;;;;;;;;;;;20.15;87.27;102275.59;4952300;29;19938;-96
2023/10/01 10:33:01;;;;;;;;;;;;;;;20.23;88.68;102260.63;4935578;29;19914;-96
2023/10/01 10:35:30;;;;;;;;;;;;;;;20.32;83.87;102260.69;4935327;29;20373;-96
2023/10/01 10:37:56;;;;;;;;;;;;;;;20.29;83.18;102258.03;4930988;29;19929;-96
2023/10/01 10:40:22;;;;;;;;;;;;;;;20.49;82.66;102258.13;4940885;29;19915;-96
2023/10/01 10:43:02;;;;;;;;;;;;;;;20.77;85.21;102254.72;4933879;29;19974;-96
2023/10/01 10:45:43;;;;;;;;;;;;;;;21.01;84.80;102262.78;4935140;29;20669;-96
2023/10/01 10:48:16;;;;;;;;;;;;;;;21.30;83.67;102269.91;4935743;29;19926;-96
2023/10/01 10:50:46;;;;;;;;;;;;;;;21.53;82.78;102263.78;4933859;29;19899;-96
2023/10/01 10:53:24;;;;;;;;;;;;;;;21.61;76.95;102256.72;4931705;29;19974;-96
2023/10/01 10:55:55;;;;;;;;;;;;;;;21.58;81.25;102256.72;4933695;29;19914;-96
2023/10/01 10:58:24;;;;;;;;;;;;;;;21.77;81.72;102259.34;4914479;29;19923;-96
2023/10/01 11:00:52;;;;;;;;;;;;;;;21.99;78.26;102255.81;4913988;29;19915;-96
2023/10/01 11:03:49;;;;;;;;;;;;;;;22.18;76.35;102254.00;4917618;29;19921;-96
2023/10/01 11:06:25;;;;;;;;;;;;;;;22.36;80.00;102249.56;4916151;29;19934;-96
2023/10/01 11:08:53;;;;;;;;;;;;;;;22.60;76.79;102256.56;4933407;29;19918;-96
2023/10/01 11:11:39;;;;;;;;;;;;;;;22.78;75.98;102254.72;4934972;29;19966;-96
2023/10/01 11:14:11;;;;;;;;;;;;;;;23.03;72.68;102250.16;4936401;29;19978;-96
2023/10/01 11:16:45;;;;;;;;;;;;;;;23.14;72.84;102250.13;4930128;29;19990;-96
2023/10/01 11:19:16;;;;;;;;;;;;;;;23.16;74.08;102245.66;4925966;29;19915;-96
2023/10/01 11:22:01;;;;;;;;;;;;;;;23.09;71.91;102244.81;4927182;29;19915;-96
2023/10/01 11:24:30;;;;;;;;;;;;;;;23.00;72.38;102232.47;4924984;29;19922;-96
2023/10/01 11:27:19;;;;;;;;;;;;;;;23.06;74.49;102216.47;4928084;29;19918;-96
2023/10/01 11:30:12;;;;;;;;;;;;;;;23.32;73.35;102223.41;4944975;29;19958;-96
2023/10/01 11:35:41;;;;;;;;;;;;;;;23.40;72.81;102216.22;4927429;29;19915;-96
2023/10/01 11:38:23;;;;;;;;;;;;;;;23.28;69.80;102219.00;4924414;29;19919;-96
2023/10/01 11:41:07;;;;;;;;;;;;;;;23.18;70.78;102220.84;4925019;29;20369;-96
2023/10/01 11:43:58;;;;;;;;;;;;;;;23.17;71.89;102219.06;4925567;29;19974;-96
2023/10/01 11:46:38;;;;;;;;;;;;;;;23.39;71.26;102210.91;4924147;29;19992;-96
2023/10/01 11:49:16;;;;;;;;;;;;;;;23.56;70.49;102216.97;4924643;29;19958;-96
2023/10/01 11:51:54;;;;;;;;;;;;;;;23.52;71.04;102214.38;4925305;29;19922;-96
2023/10/01 11:57:51;;;;;;;;;;;;;;;23.44;71.07;102211.78;4929834;29;20080;-96
2023/10/01 12:03:27;;;;;;;;;;;;;;;23.90;69.43;102200.75;4912950;29;19915;-96
2023/10/01 12:06:00;;;;;;;;;;;;;;;24.02;67.48;102198.84;4905634;29;19923;-96
2023/10/01 12:08:47;;;;;;;;;;;;;;;23.88;67.65;102185.66;4921676;29;20006;-96
2023/10/01 12:11:27;;;;;;;;;;;;;;;23.83;68.35;102184.81;4924364;29;19915;-96
2023/10/01 12:14:18;;;;;;;;;;;;;;;23.98;67.34;102187.34;4925388;29;19914;-96
2023/10/01 12:16:49;;;;;;;;;;;;;;;24.11;66.55;102185.41;4922633;29;19923;-96
2023/10/01 12:19:24;;;;;;;;;;;;;;;24.22;67.48;102179.97;4921527;29;19918;-96
2023/10/01 12:22:05;;;;;;;;;;;;;;;24.34;66.94;102190.47;4922927;29;19915;-96
2023/10/01 12:24:56;;;;;;;;;;;;;;;24.31;64.76;102179.84;4921732;29;19921;-96
2023/10/01 12:30:27;;;;;;;;;;;;;;;23.86;65.97;102172.38;4906620;29;19937;-96
2023/10/01 12:33:00;;;;;;;;;;;;;;;23.94;65.49;102181.19;4922070;29;19915;-96
2023/10/01 12:35:29;;;;;;;;;;;;;;;23.97;65.19;102172.28;4920833;29;19970;-96
2023/10/01 12:40:52;;;;;;;;;;;;;;;23.99;63.13;102156.28;4938250;29;20054;-96
2023/10/01 12:46:09;;;;;;;;;;;;;;;24.41;63.94;102160.19;4937768;29;20383;-96
2023/10/01 12:48:39;;;;;;;;;;;;;;;24.51;63.36;102154.75;4921957;29;19918;-96
2023/10/01 12:51:08;;;;;;;;;;;;;;;24.53;63.92;102152.94;4919887;29;19921;-96
2023/10/01 12:53:50;;;;;;;;;;;;;;;24.53;62.20;102159.13;4920481;29;19997;-96
2023/10/01 12:56:21;;;;;;;;;;;;;;;24.40;64.73;102146.88;4920011;29;19915;-96
2023/10/01 12:58:53;;;;;;;;;;;;;;;24.38;64.18;102157.56;4920255;29;20365;-96
2023/10/01 13:01:32;;;;;;;;;;;;;;;24.30;63.34;102147.00;4920348;29;19939;-96
2023/10/01 13:04:21;;;;;;;;;;;;;;;24.20;64.23;102145.38;4920030;29;19943;-96
2023/10/01 13:06:48;;;;;;;;;;;;;;;24.15;63.76;102141.00;4917594;29;19923;-96
2023/10/01 13:12:13;;;;;;;;;;;;;;;24.56;65.63;102131.56;4907118;29;19954;-96
2023/10/01 13:14:38;;;;;;;;;;;;;;;24.69;65.39;102137.63;4887586;29;20390;-96
2023/10/01 13:17:03;;;;;;;;;;;;;;;24.81;64.06;102133.00;4890798;29;20026;-96
2023/10/01 13:19:37;;;;;;;;;;;;;;;24.90;62.70;102133.78;4901320;29;20393;-96
2023/10/01 13:22:08;;;;;;;;;;;;;;;24.84;63.46;102126.75;4900315;29;19915;-96
2023/10/01 13:24:38;;;;;;;;;;;;;;;24.82;63.53;102118.78;4900435;29;19950;-96
2023/10/01 13:27:16;;;;;;;;;;;;;;;24.75;61.75;102127.78;4901167;29;19927;-96
2023/10/01 13:29:49;;;;;;;;;;;;;;;24.60;62.19;102120.00;4900915;29;19915;-96
2023/10/01 13:32:26;;;;;;;;;;;;;;;24.51;62.65;102118.31;4901082;29;20297;-96
2023/10/01 13:34:56;;;;;;;;;;;;;;;24.54;64.44;102114.72;4901351;29;19942;-96
2023/10/01 13:40:14;;;;;;;;;;;;;;;24.67;60.69;102121.66;4917706;29;19920;-96
2023/10/01 14:10:15;;;;;;;;;;;;;;;24.90;59.42;102104.44;4939796;29;19966;-96
2023/10/01 14:12:56;;;;;;;;;;;;;;;24.99;60.23;102098.94;4922510;29;19966;-96
2023/10/01 14:15:33;;;;;;;;;;;;;;;25.03;60.69;102100.66;4921896;29;19945;-96
2023/10/01 14:18:00;;;;;;;;;;;;;;;24.84;59.56;102089.41;4922699;29;20013;-96
2023/10/01 14:20:40;;;;;;;;;;;;;;;24.76;61.94;102086.84;4923006;29;19915;-96
2023/10/01 14:23:40;;;;;;;;;;;;;;;24.81;62.54;102085.00;4922772;29;20338;-96
2023/10/01 14:28:46;;;;;;;;;;;;;;;24.90;63.40;102077.78;4939192;29;19957;-96
2023/10/01 14:31:38;;;;;;;;;;;;;;;24.85;63.37;102075.16;4939451;29;20481;-96
2023/10/01 14:34:03;;;;;;;;;;;;;;;24.79;63.13;102072.59;4938562;29;19937;-96
2023/10/01 14:36:39;;;;;;;;;;;;;;;24.75;62.76;102071.78;4922657;29;19927;-96
2023/10/01 14:39:05;;;;;;;;;;;;;;;24.80;64.18;102063.72;4921638;29;19918;-96
2023/10/01 14:41:41;;;;;;;;;;;;;;;24.80;61.89;102064.59;4922730;29;19918;-96
2023/10/01 14:44:07;;;;;;;;;;;;;;;24.64;62.76;102060.41;4922180;29;19922;-96
2023/10/01 14:46:40;;;;;;;;;;;;;;;24.55;63.46;102060.50;4922007;29;20385;-96
2023/10/01 14:49:05;;;;;;;;;;;;;;;24.42;62.35;102058.03;4921459;29;19967;-96